• Join FlightAware (Why Join?)
  • Login
  • US Flag 
05:58AM EDT


 

Airport Tracker/Info


-or-


 

Live Flight TrackerFlight Track Log ✈ UCA3597 ✈ 01-May-2014 ✈ KBGM - KIAD

Flight Track Log - Related Links

Times and Time Zones

All times are in EDT time to prevent confusion due to time zone crossing. See the UCA3597 flight status page for this flight to view local times or setup timezone preferences in your user account.

Time Position Orientation Groundspeed Altitude Reporting Facility
EDT Latitude Longitude Course Direction KTS MPH feet Rate Location/Type
07:21PM 42.1992 -76.0586 209° Southwest 171 197 4,400  Level New York Center
07:22PM 42.1583 -76.0889 209° Southwest 176 203 6,500 1,860 Climbing New York Center
07:23PM 42.1214 -76.1222 214° Southwest 176 203 8,200 1,800 Climbing New York Center
07:24PM 42.0825 -76.1525 210° Southwest 176 203 10,200 1,920 Climbing New York Center
07:25PM 42.0500 -76.1806 213° Southwest 164 189 12,100 1,560 Climbing New York Center
07:26PM 42.0153 -76.2114 213° Southwest 164 189 13,400 1,260 Climbing New York Center
07:27PM 41.9719 -76.2469 211° Southwest 169 194 14,700 1,200 Climbing New York Center
07:28PM 41.9331 -76.2797 212° Southwest 174 200 15,900 600 Climbing New York Center
07:29PM 41.8894 -76.3181 213° Southwest 179 206 16,000  Climbing New York Center
07:30PM 41.8442 -76.3561 212° Southwest 198 228 16,000  Level New York Center
07:31PM 41.7942 -76.3964 211° Southwest 211 243 16,100  Climbing New York Center
07:32PM 41.7378 -76.4444 212° Southwest 222 255 16,000 -60 Descending New York Center
07:33PM 41.6858 -76.4872 212° Southwest 222 255 16,000  Level New York Center
07:34PM 41.6381 -76.5247 210° Southwest 222 255 16,000  Level New York Center
07:35PM 41.5861 -76.5703 213° Southwest 222 255 16,000  Level New York Center
07:36PM 41.5275 -76.6178 211° Southwest 222 255 16,000  Level New York Center
07:37PM 41.4717 -76.6489 203° Southwest 222 255 16,000  Level New York Center
07:38PM 41.4106 -76.6658 192° South 227 261 16,000  Level New York Center
07:39PM 41.3575 -76.6858 196° South 232 267 16,000  Level New York Center
07:40PM 41.2958 -76.7081 195° South 227 261 16,000  Level New York Center
07:41PM 41.2344 -76.7303 195° South 227 261 16,000  Level New York Center
07:42PM 41.1753 -76.7472 192° South 227 261 16,000  Level New York Center
07:43PM 41.1139 -76.7667 193° South 227 261 16,000  Level New York Center
07:44PM 41.0522 -76.7886 195° South 227 261 16,000  Level New York Center
07:45PM 40.9908 -76.8081 193° South 227 261 16,000  Level New York Center
07:46PM 40.9269 -76.8325 196° South 227 261 16,000  Level New York Center
07:47PM 40.8700 -76.8494 193° South 227 261 16,000  Level New York Center
07:48PM 40.8022 -76.8708 193° South 227 261 16,000  Level New York Center
07:49PM 40.7447 -76.8903 194° South 232 267 16,000  Level New York Center
07:50PM 40.6789 -76.9147 196° South 225 259 16,000  Level New York Center
07:51PM 40.6217 -76.9314 192° South 230 265 16,000  Level New York Center
07:52PM 40.5561 -76.9528 194° South 230 265 16,000  Level New York Center
07:53PM 40.5011 -76.9697 193° South 230 265 16,000  Level New York Center
07:54PM 40.4350 -76.9939 196° South 230 265 16,000 -180 Level New York Center
07:55PM 40.3781 -77.0106 193° South 230 265 15,700 -600 Descending New York Center
07:56PM 40.3097 -77.0369 196° South 225 259 14,800 -840 Descending New York Center
07:57PM 40.2589 -77.0542 194° South 225 259 14,100 -840 Descending New York Center
07:58PM 40.2061 -77.0683 192° South 197 227 13,200 -960 Descending New York Center
08:00PM 40.1333 -77.0833 189° South 180 207 11,600 -1,020 Descending Potomac TRACON
08:01PM 40.0833 -77.1000 194° South 183 211 10,600 -1,020 Descending Potomac TRACON
08:02PM 40.0167 -77.1167 191° South 207 238 9,600 -900 Descending Potomac TRACON
08:03PM 39.9667 -77.1333 194° South 210 242 9,000 -300 Descending Potomac TRACON
08:04PM 39.9167 -77.1667 207° Southwest 200 230 9,000 -60 Level Potomac TRACON
08:05PM 39.8667 -77.2000 207° Southwest 199 229 8,900 -420 Descending Potomac TRACON
08:06PM 39.8167 -77.2167 194° South 202 232 8,200 -480 Descending Potomac TRACON
08:07PM 39.7667 -77.2500 207° Southwest 204 235 8,000 -120 Descending Potomac TRACON
08:08PM 39.7000 -77.2833 201° Southwest 203 234 8,000  Level Potomac TRACON
08:09PM 39.6500 -77.3167 207° Southwest 202 232 8,000 -60 Level Potomac TRACON
08:10PM 39.6000 -77.3333 194° South 207 238 7,900  Descending Potomac TRACON
08:11PM 39.5500 -77.3500 194° South 203 234 8,000  Climbing Potomac TRACON
08:12PM 39.4833 -77.3500 180° South 205 236 8,000 -540 Level Potomac TRACON
08:13PM 39.4333 -77.3667 194° South 224 258 6,900 -1,560 Descending Potomac TRACON
08:14PM 39.3667 -77.3667 180° South 240 276 4,900 -1,500 Descending Potomac TRACON
08:15PM 39.3000 -77.3667 180° South 245 282 4,000 -480 Descending Potomac TRACON
08:16PM 39.2333 -77.3667 180° South 243 280 4,000  Level Potomac TRACON
08:17PM 39.1667 -77.3667 180° South 242 278 4,000  Level Potomac TRACON
08:18PM 39.1000 -77.3667 180° South 240 276 4,000 -480 Level Potomac TRACON
08:19PM 39.0333 -77.3500 169° South 241 277 3,100 -540 Descending Potomac TRACON
08:20PM 38.9667 -77.3500 180° South 249 287 3,000 -60 Descending Potomac TRACON
08:21PM 38.8833 -77.3500 180° South 247 284 3,000 -60 Level Potomac TRACON
08:22PM 38.8167 -77.3667 191° South 236 272 2,900 -540 Descending Potomac TRACON
08:23PM 38.8167 -77.4167 270° West 200 230 2,000 -660 Descending Potomac TRACON
08:24PM 38.8500 -77.4333 339° North 146 168 1,600 -600 Descending Potomac TRACON
08:25PM 38.8833 -77.4333 360° North 115 132 900 -720 Descending Potomac TRACON